sensor_id;sensor_type;location;lat;lon;timestamp;pressure;altitude;pressure_sealevel;temperature;humidity
44697;BME280;57264;47.480;19.354;2023-05-19T12:43:54;99696.81;;;22.37;49.94
44697;BME280;57264;47.480;19.354;2023-05-19T12:46:20;99683.94;;;22.50;49.71
44697;BME280;57264;47.480;19.354;2023-05-19T12:48:46;99694.44;;;21.96;49.61
44697;BME280;57264;47.480;19.354;2023-05-19T12:51:19;99687.94;;;22.52;51.41
44697;BME280;57264;47.480;19.354;2023-05-19T12:53:45;99677.19;;;22.62;50.24
44697;BME280;57264;47.480;19.354;2023-05-19T12:56:14;99682.31;;;22.49;53.83
44697;BME280;57264;47.480;19.354;2023-05-19T12:58:41;99682.97;;;22.10;46.88
44697;BME280;57264;47.480;19.354;2023-05-19T13:01:13;99677.53;;;22.35;50.83
44697;BME280;57264;47.480;19.354;2023-05-19T13:03:40;99685.59;;;22.20;49.58
44697;BME280;57264;47.480;19.354;2023-05-19T13:06:09;99669.25;;;22.42;49.12
44697;BME280;57264;47.480;19.354;2023-05-19T13:08:36;99672.69;;;22.48;50.54
44697;BME280;57264;47.480;19.354;2023-05-19T13:11:02;99670.22;;;22.71;48.82
44697;BME280;57264;47.480;19.354;2023-05-19T13:13:28;99676.78;;;22.30;48.92
44697;BME280;57264;47.480;19.354;2023-05-19T13:15:54;99672.44;;;22.44;50.06
44697;BME280;57264;47.480;19.354;2023-05-19T13:18:20;99666.84;;;22.40;47.50
44697;BME280;57264;47.480;19.354;2023-05-19T13:20:46;99664.88;;;22.61;49.26
44697;BME280;57264;47.480;19.354;2023-05-19T13:23:13;99658.72;;;22.61;47.10
44697;BME280;57264;47.480;19.354;2023-05-19T13:25:39;99650.22;;;22.44;46.78
44697;BME280;57264;47.480;19.354;2023-05-19T13:28:06;99661.41;;;22.66;48.01
44697;BME280;57264;47.480;19.354;2023-05-19T13:30:33;99657.69;;;22.52;46.13
44697;BME280;57264;47.480;19.354;2023-05-19T13:32:59;99664.41;;;22.44;48.65
44697;BME280;57264;47.480;19.354;2023-05-19T13:35:24;99653.66;;;22.69;46.87
44697;BME280;57264;47.480;19.354;2023-05-19T13:37:50;99649.50;;;22.97;46.63
44697;BME280;57264;47.480;19.354;2023-05-19T13:40:16;99648.25;;;23.23;45.72
44697;BME280;57264;47.480;19.354;2023-05-19T13:42:42;99641.06;;;23.19;47.54
44697;BME280;57264;47.480;19.354;2023-05-19T13:45:08;99646.47;;;22.55;48.35
44697;BME280;57264;47.480;19.354;2023-05-19T13:47:34;99642.69;;;22.56;46.20
44697;BME280;57264;47.480;19.354;2023-05-19T13:50:02;99640.41;;;22.93;48.09
44697;BME280;57264;47.480;19.354;2023-05-19T13:52:28;99636.91;;;22.98;49.60
44697;BME280;57264;47.480;19.354;2023-05-19T13:54:54;99637.06;;;22.62;48.58
44697;BME280;57264;47.480;19.354;2023-05-19T13:57:22;99627.88;;;22.83;49.69
44697;BME280;57264;47.480;19.354;2023-05-19T13:59:47;99638.44;;;22.50;49.31
44697;BME280;57264;47.480;19.354;2023-05-19T14:02:13;99634.16;;;22.49;49.28
44697;BME280;57264;47.480;19.354;2023-05-19T14:04:39;99634.16;;;22.54;48.75
44697;BME280;57264;47.480;19.354;2023-05-19T14:07:05;99628.75;;;22.69;48.39
44697;BME280;57264;47.480;19.354;2023-05-19T14:09:31;99629.81;;;22.73;48.34
44697;BME280;57264;47.480;19.354;2023-05-19T14:11:57;99633.13;;;22.45;49.20
44697;BME280;57264;47.480;19.354;2023-05-19T14:14:23;99627.69;;;22.60;47.36
44697;BME280;57264;47.480;19.354;2023-05-19T14:16:49;99637.94;;;22.43;48.48
44697;BME280;57264;47.480;19.354;2023-05-19T14:19:15;99628.19;;;22.67;49.39
44697;BME280;57264;47.480;19.354;2023-05-19T14:21:40;99635.09;;;22.83;47.95
44697;BME280;57264;47.480;19.354;2023-05-19T14:24:06;99628.34;;;22.96;49.61
44697;BME280;57264;47.480;19.354;2023-05-19T14:26:31;99633.22;;;23.27;49.36
44697;BME280;57264;47.480;19.354;2023-05-19T14:28:57;99625.50;;;23.21;47.32
44697;BME280;57264;47.480;19.354;2023-05-19T14:31:22;99629.50;;;23.23;47.14
44697;BME280;57264;47.480;19.354;2023-05-19T14:33:48;99629.56;;;23.13;48.89
44697;BME280;57264;47.480;19.354;2023-05-19T14:36:14;99630.19;;;23.00;47.73
44697;BME280;57264;47.480;19.354;2023-05-19T14:38:40;99637.97;;;23.02;49.49
44697;BME280;57264;47.480;19.354;2023-05-19T14:41:05;99633.81;;;22.75;49.55
44697;BME280;57264;47.480;19.354;2023-05-19T14:43:31;99640.19;;;22.84;50.14
44697;BME280;57264;47.480;19.354;2023-05-19T14:45:57;99630.94;;;22.52;48.52
44697;BME280;57264;47.480;19.354;2023-05-19T14:48:23;99636.09;;;22.97;50.14
44697;BME280;57264;47.480;19.354;2023-05-19T14:50:48;99640.44;;;22.88;50.28
44697;BME280;57264;47.480;19.354;2023-05-19T14:53:14;99632.28;;;22.54;49.53
44697;BME280;57264;47.480;19.354;2023-05-19T14:55:40;99623.44;;;23.08;49.24
44697;BME280;57264;47.480;19.354;2023-05-19T14:58:06;99624.50;;;23.12;48.74
44697;BME280;57264;47.480;19.354;2023-05-19T15:00:31;99618.88;;;23.13;46.36
44697;BME280;57264;47.480;19.354;2023-05-19T15:02:57;99630.94;;;23.11;48.50
44697;BME280;57264;47.480;19.354;2023-05-19T15:05:23;99628.44;;;22.75;47.87
44697;BME280;57264;47.480;19.354;2023-05-19T15:07:49;99630.88;;;22.67;47.24
44697;BME280;57264;47.480;19.354;2023-05-19T15:10:15;99629.38;;;23.00;47.40
44697;BME280;57264;47.480;19.354;2023-05-19T15:12:41;99626.44;;;23.01;50.01
44697;BME280;57264;47.480;19.354;2023-05-19T15:15:07;99621.78;;;23.17;47.27
44697;BME280;57264;47.480;19.354;2023-05-19T15:17:33;99614.44;;;23.32;46.09
44697;BME280;57264;47.480;19.354;2023-05-19T15:19:58;99621.78;;;23.17;46.92
44697;BME280;57264;47.480;19.354;2023-05-19T15:22:24;99622.47;;;22.99;46.64
44697;BME280;57264;47.480;19.354;2023-05-19T15:24:49;99619.38;;;22.71;47.51
44697;BME280;57264;47.480;19.354;2023-05-19T15:27:15;99621.47;;;22.79;46.66
44697;BME280;57264;47.480;19.354;2023-05-19T15:29:40;99626.44;;;22.42;46.91
44697;BME280;57264;47.480;19.354;2023-05-19T15:32:06;99625.06;;;22.55;47.80
44697;BME280;57264;47.480;19.354;2023-05-19T15:34:32;99628.88;;;22.38;48.00
44697;BME280;57264;47.480;19.354;2023-05-19T15:36:58;99623.28;;;22.25;48.54
44697;BME280;57264;47.480;19.354;2023-05-19T15:39:23;99616.06;;;22.30;48.82
44697;BME280;57264;47.480;19.354;2023-05-19T15:41:49;99623.69;;;22.62;50.03
44697;BME280;57264;47.480;19.354;2023-05-19T15:44:15;99623.09;;;22.75;49.16
44697;BME280;57264;47.480;19.354;2023-05-19T15:46:41;99618.59;;;22.61;48.76
44697;BME280;57264;47.480;19.354;2023-05-19T15:49:06;99623.72;;;22.52;49.86
44697;BME280;57264;47.480;19.354;2023-05-19T15:51:33;99619.16;;;22.53;49.59
44697;BME280;57264;47.480;19.354;2023-05-19T15:53:58;99621.53;;;22.59;49.86
44697;BME280;57264;47.480;19.354;2023-05-19T15:56:24;99616.81;;;22.46;49.82
44697;BME280;57264;47.480;19.354;2023-05-19T15:58:50;99620.88;;;22.23;50.94
44697;BME280;57264;47.480;19.354;2023-05-19T16:01:16;99623.06;;;22.06;50.24
44697;BME280;57264;47.480;19.354;2023-05-19T16:03:42;99623.53;;;22.33;50.61
44697;BME280;57264;47.480;19.354;2023-05-19T16:06:08;99629.94;;;22.32;51.12
44697;BME280;57264;47.480;19.354;2023-05-19T16:08:33;99624.94;;;22.01;51.78
44697;BME280;57264;47.480;19.354;2023-05-19T16:10:59;99629.50;;;22.05;51.34
44697;BME280;57264;47.480;19.354;2023-05-19T16:13:24;99627.59;;;22.11;52.21
44697;BME280;57264;47.480;19.354;2023-05-19T16:15:50;99632.44;;;21.78;51.14
44697;BME280;57264;47.480;19.354;2023-05-19T16:18:16;99631.38;;;21.69;51.67
44697;BME280;57264;47.480;19.354;2023-05-19T16:20:42;99636.44;;;21.56;54.48
44697;BME280;57264;47.480;19.354;2023-05-19T16:23:08;99631.13;;;21.45;54.79
44697;BME280;57264;47.480;19.354;2023-05-19T16:25:34;99639.91;;;21.31;54.82
44697;BME280;57264;47.480;19.354;2023-05-19T16:27:59;99636.69;;;21.24;55.65
44697;BME280;57264;47.480;19.354;2023-05-19T16:30:25;99627.06;;;21.13;55.68
44697;BME280;57264;47.480;19.354;2023-05-19T16:32:52;99636.34;;;21.00;55.38
44697;BME280;57264;47.480;19.354;2023-05-19T16:35:19;99633.69;;;20.90;55.23
44697;BME280;57264;47.480;19.354;2023-05-19T16:37:45;99639.22;;;20.73;61.04
44697;BME280;57264;47.480;19.354;2023-05-19T16:40:10;99639.19;;;20.63;60.46
44697;BME280;57264;47.480;19.354;2023-05-19T16:42:36;99635.69;;;20.63;56.95
44697;BME280;57264;47.480;19.354;2023-05-19T16:45:02;99642.09;;;20.57;58.19
44697;BME280;57264;47.480;19.354;2023-05-19T16:47:27;99637.00;;;20.50;57.89
44697;BME280;57264;47.480;19.354;2023-05-19T16:49:53;99634.03;;;20.46;61.74
44697;BME280;57264;47.480;19.354;2023-05-19T16:52:18;99632.13;;;20.32;61.40
44697;BME280;57264;47.480;19.354;2023-05-19T16:54:44;99626.97;;;20.20;64.99
44697;BME280;57264;47.480;19.354;2023-05-19T16:57:10;99638.34;;;20.05;65.38
44697;BME280;57264;47.480;19.354;2023-05-19T16:59:38;99635.06;;;19.93;63.65
44697;BME280;57264;47.480;19.354;2023-05-19T17:02:04;99629.22;;;19.96;59.53
44697;BME280;57264;47.480;19.354;2023-05-19T17:04:29;99628.66;;;19.89;58.91
44697;BME280;57264;47.480;19.354;2023-05-19T17:06:55;99635.06;;;19.93;57.69
44697;BME280;57264;47.480;19.354;2023-05-19T17:09:20;99638.22;;;19.90;58.02
44697;BME280;57264;47.480;19.354;2023-05-19T17:11:52;99631.28;;;19.84;57.49
44697;BME280;57264;47.480;19.354;2023-05-19T17:14:18;99636.03;;;19.82;57.01
44697;BME280;57264;47.480;19.354;2023-05-19T17:16:44;99630.59;;;19.67;61.15
44697;BME280;57264;47.480;19.354;2023-05-19T17:19:10;99628.41;;;19.59;58.27
44697;BME280;57264;47.480;19.354;2023-05-19T17:21:36;99628.97;;;19.61;58.13
44697;BME280;57264;47.480;19.354;2023-05-19T17:24:01;99627.88;;;19.57;58.60
44697;BME280;57264;47.480;19.354;2023-05-19T17:26:27;99629.69;;;19.51;59.72
44697;BME280;57264;47.480;19.354;2023-05-19T17:28:53;99637.56;;;19.41;60.08
44697;BME280;57264;47.480;19.354;2023-05-19T17:31:19;99635.31;;;19.28;61.42
44697;BME280;57264;47.480;19.354;2023-05-19T17:33:44;99639.09;;;19.05;65.40
44697;BME280;57264;47.480;19.354;2023-05-19T17:36:10;99642.22;;;19.02;62.64
44697;BME280;57264;47.480;19.354;2023-05-19T17:38:35;99635.13;;;18.86;64.88
44697;BME280;57264;47.480;19.354;2023-05-19T17:41:05;99647.59;;;18.81;62.62
44697;BME280;57264;47.480;19.354;2023-05-19T17:43:38;99643.69;;;18.66;62.72
44697;BME280;57264;47.480;19.354;2023-05-19T17:46:03;99637.84;;;18.64;62.90
44697;BME280;57264;47.480;19.354;2023-05-19T17:48:30;99648.34;;;18.54;63.85
44697;BME280;57264;47.480;19.354;2023-05-19T17:50:56;99645.84;;;18.48;64.57
44697;BME280;57264;47.480;19.354;2023-05-19T17:53:22;99644.41;;;18.40;64.93
44697;BME280;57264;47.480;19.354;2023-05-19T17:55:54;99641.38;;;18.32;65.51
44697;BME280;57264;47.480;19.354;2023-05-19T17:58:22;99650.31;;;18.25;65.64
44697;BME280;57264;47.480;19.354;2023-05-19T18:00:47;99646.78;;;18.20;65.90
44697;BME280;57264;47.480;19.354;2023-05-19T18:03:13;99643.75;;;18.11;66.40
44697;BME280;57264;47.480;19.354;2023-05-19T18:05:39;99649.78;;;18.07;67.49
44697;BME280;57264;47.480;19.354;2023-05-19T18:08:08;99643.53;;;17.96;68.13
44697;BME280;57264;47.480;19.354;2023-05-19T18:10:37;99648.44;;;17.88;67.77
44697;BME280;57264;47.480;19.354;2023-05-19T18:13:04;99644.09;;;17.82;67.18
44697;BME280;57264;47.480;19.354;2023-05-19T18:15:30;99640.09;;;17.79;66.91
44697;BME280;57264;47.480;19.354;2023-05-19T18:17:56;99641.59;;;17.75;66.80
44697;BME280;57264;47.480;19.354;2023-05-19T18:20:22;99628.56;;;17.57;68.34
44697;BME280;57264;47.480;19.354;2023-05-19T18:22:50;99639.09;;;17.52;68.39
44697;BME280;57264;47.480;19.354;2023-05-19T18:25:16;99641.91;;;17.45;68.63
44697;BME280;57264;47.480;19.354;2023-05-19T18:27:43;99646.53;;;17.38;68.53
44697;BME280;57264;47.480;19.354;2023-05-19T18:30:09;99648.88;;;17.35;68.66
44697;BME280;57264;47.480;19.354;2023-05-19T18:32:35;99652.81;;;17.32;68.80
44697;BME280;57264;47.480;19.354;2023-05-19T18:35:01;99653.16;;;17.36;68.25
44697;BME280;57264;47.480;19.354;2023-05-19T18:37:26;99659.97;;;17.31;68.25
44697;BME280;57264;47.480;19.354;2023-05-19T18:39:54;99652.41;;;17.23;68.75
44697;BME280;57264;47.480;19.354;2023-05-19T18:42:20;99652.56;;;17.17;69.35
44697;BME280;57264;47.480;19.354;2023-05-19T18:44:46;99653.16;;;17.07;69.65
44697;BME280;57264;47.480;19.354;2023-05-19T18:47:12;99648.78;;;17.01;70.04
44697;BME280;57264;47.480;19.354;2023-05-19T18:49:41;99653.44;;;16.94;70.67
44697;BME280;57264;47.480;19.354;2023-05-19T18:52:08;99654.41;;;16.88;70.63
44697;BME280;57264;47.480;19.354;2023-05-19T18:54:34;99664.44;;;16.86;70.40
44697;BME280;57264;47.480;19.354;2023-05-19T18:56:59;99665.84;;;16.77;70.73
44697;BME280;57264;47.480;19.354;2023-05-19T18:59:27;99677.28;;;16.66;71.15
44697;BME280;57264;47.480;19.354;2023-05-19T19:01:53;99673.25;;;16.63;71.17
44697;BME280;57264;47.480;19.354;2023-05-19T19:04:19;99676.03;;;16.68;70.97
44697;BME280;57264;47.480;19.354;2023-05-19T19:06:46;99678.19;;;16.71;71.08
44697;BME280;57264;47.480;19.354;2023-05-19T19:09:12;99674.72;;;16.71;70.65
44697;BME280;57264;47.480;19.354;2023-05-19T19:11:38;99679.56;;;16.74;70.67
44697;BME280;57264;47.480;19.354;2023-05-19T19:14:04;99669.53;;;16.76;70.74
44697;BME280;57264;47.480;19.354;2023-05-19T19:16:29;99677.81;;;16.79;70.11
44697;BME280;57264;47.480;19.354;2023-05-19T19:18:55;99677.25;;;16.77;70.48
44697;BME280;57264;47.480;19.354;2023-05-19T19:21:20;99680.50;;;16.68;70.62
44697;BME280;57264;47.480;19.354;2023-05-19T19:23:48;99687.44;;;16.69;70.75
44697;BME280;57264;47.480;19.354;2023-05-19T19:26:14;99678.41;;;16.70;70.52
44697;BME280;57264;47.480;19.354;2023-05-19T19:28:40;99682.56;;;16.66;71.02
44697;BME280;57264;47.480;19.354;2023-05-19T19:31:06;99694.34;;;16.58;71.85
44697;BME280;57264;47.480;19.354;2023-05-19T19:33:31;99688.47;;;16.56;71.60
44697;BME280;57264;47.480;19.354;2023-05-19T19:35:57;99695.13;;;16.70;71.06
44697;BME280;57264;47.480;19.354;2023-05-19T19:38:22;99692.38;;;16.77;71.16
44697;BME280;57264;47.480;19.354;2023-05-19T19:40:49;99695.38;;;16.69;71.44
44697;BME280;57264;47.480;19.354;2023-05-19T19:43:16;99700.22;;;16.60;71.94
44697;BME280;57264;47.480;19.354;2023-05-19T19:45:41;99696.88;;;16.65;72.11
44697;BME280;57264;47.480;19.354;2023-05-19T19:48:07;99697.91;;;16.75;71.82
44697;BME280;57264;47.480;19.354;2023-05-19T19:50:32;99703.06;;;16.82;71.75
44697;BME280;57264;47.480;19.354;2023-05-19T19:52:58;99702.56;;;16.85;71.82
44697;BME280;57264;47.480;19.354;2023-05-19T19:55:24;99705.22;;;16.85;71.69
44697;BME280;57264;47.480;19.354;2023-05-19T19:57:51;99702.09;;;17.00;71.15
44697;BME280;57264;47.480;19.354;2023-05-19T20:00:17;99707.28;;;16.95;71.21
44697;BME280;57264;47.480;19.354;2023-05-19T20:02:43;99702.31;;;16.98;71.43
44697;BME280;57264;47.480;19.354;2023-05-19T20:05:09;99705.56;;;17.00;71.56
44697;BME280;57264;47.480;19.354;2023-05-19T20:07:36;99701.38;;;17.04;71.31
44697;BME280;57264;47.480;19.354;2023-05-19T20:10:10;99703.09;;;17.10;70.64
44697;BME280;57264;47.480;19.354;2023-05-19T20:12:36;99695.94;;;17.11;70.61
44697;BME280;57264;47.480;19.354;2023-05-19T20:15:01;99702.91;;;17.00;70.94
44697;BME280;57264;47.480;19.354;2023-05-19T20:17:27;99701.31;;;16.88;71.96
44697;BME280;57264;47.480;19.354;2023-05-19T20:19:52;99701.47;;;16.81;72.16
44697;BME280;57264;47.480;19.354;2023-05-19T20:22:18;99697.66;;;16.77;71.99
44697;BME280;57264;47.480;19.354;2023-05-19T20:24:44;99692.78;;;16.85;72.00
44697;BME280;57264;47.480;19.354;2023-05-19T20:27:10;99698.22;;;16.79;72.38
44697;BME280;57264;47.480;19.354;2023-05-19T20:29:36;99698.44;;;16.77;72.48
44697;BME280;57264;47.480;19.354;2023-05-19T20:32:02;99680.00;;;16.82;72.06
44697;BME280;57264;47.480;19.354;2023-05-19T20:34:28;99689.25;;;16.80;71.99
44697;BME280;57264;47.480;19.354;2023-05-19T20:36:53;99694.75;;;16.78;72.33
44697;BME280;57264;47.480;19.354;2023-05-19T20:39:19;99691.19;;;16.84;72.06
44697;BME280;57264;47.480;19.354;2023-05-19T20:41:45;99691.28;;;16.90;71.35
44697;BME280;57264;47.480;19.354;2023-05-19T20:44:10;99688.63;;;16.90;71.72
44697;BME280;57264;47.480;19.354;2023-05-19T20:46:36;99696.56;;;16.90;71.43
44697;BME280;57264;47.480;19.354;2023-05-19T20:49:01;99693.91;;;16.90;71.18
44697;BME280;57264;47.480;19.354;2023-05-19T20:51:27;99690.91;;;16.98;70.95
44697;BME280;57264;47.480;19.354;2023-05-19T20:53:52;99682.28;;;16.91;71.38
44697;BME280;57264;47.480;19.354;2023-05-19T20:56:18;99685.22;;;17.06;70.60
44697;BME280;57264;47.480;19.354;2023-05-19T20:58:44;99692.53;;;16.99;70.99
44697;BME280;57264;47.480;19.354;2023-05-19T21:01:10;99684.34;;;17.00;71.14
44697;BME280;57264;47.480;19.354;2023-05-19T21:03:35;99686.72;;;17.02;71.12
44697;BME280;57264;47.480;19.354;2023-05-19T21:06:01;99685.84;;;16.96;71.18
44697;BME280;57264;47.480;19.354;2023-05-19T21:08:27;99686.72;;;17.02;70.98
44697;BME280;57264;47.480;19.354;2023-05-19T21:10:53;99680.06;;;16.99;71.38
44697;BME280;57264;47.480;19.354;2023-05-19T21:13:19;99686.41;;;16.98;71.17
44697;BME280;57264;47.480;19.354;2023-05-19T21:15:45;99688.50;;;16.96;71.63
44697;BME280;57264;47.480;19.354;2023-05-19T21:18:11;99686.31;;;16.93;71.64
44697;BME280;57264;47.480;19.354;2023-05-19T21:20:37;99681.38;;;16.85;71.69
44697;BME280;57264;47.480;19.354;2023-05-19T21:23:03;99687.28;;;16.75;71.83
44697;BME280;57264;47.480;19.354;2023-05-19T21:25:28;99687.06;;;16.77;71.59
44697;BME280;57264;47.480;19.354;2023-05-19T21:27:55;99691.09;;;16.79;71.29
44697;BME280;57264;47.480;19.354;2023-05-19T21:30:22;99686.22;;;16.88;71.00
44697;BME280;57264;47.480;19.354;2023-05-19T21:32:48;99684.13;;;16.90;70.30
44697;BME280;57264;47.480;19.354;2023-05-19T21:35:14;99689.13;;;16.75;70.95
44697;BME280;57264;47.480;19.354;2023-05-19T21:37:39;99688.22;;;16.69;71.35
44697;BME280;57264;47.480;19.354;2023-05-19T21:40:06;99678.34;;;16.65;71.82
44697;BME280;57264;47.480;19.354;2023-05-19T21:42:32;99679.69;;;16.67;71.94
44697;BME280;57264;47.480;19.354;2023-05-19T21:44:58;99673.41;;;16.57;72.20
44697;BME280;57264;47.480;19.354;2023-05-19T21:47:23;99676.94;;;16.62;72.21
44697;BME280;57264;47.480;19.354;2023-05-19T21:49:49;99674.19;;;16.69;72.34
44697;BME280;57264;47.480;19.354;2023-05-19T21:52:14;99670.47;;;16.70;72.04
44697;BME280;57264;47.480;19.354;2023-05-19T21:54:40;99670.50;;;16.58;72.41
44697;BME280;57264;47.480;19.354;2023-05-19T21:57:05;99670.47;;;16.47;72.92
44697;BME280;57264;47.480;19.354;2023-05-19T21:59:31;99673.50;;;16.38;73.43
44697;BME280;57264;47.480;19.354;2023-05-19T22:01:56;99675.91;;;16.52;73.17
44697;BME280;57264;47.480;19.354;2023-05-19T22:04:22;99670.59;;;16.52;73.20
44697;BME280;57264;47.480;19.354;2023-05-19T22:06:48;99680.63;;;16.50;73.47
44697;BME280;57264;47.480;19.354;2023-05-19T22:09:13;99678.22;;;16.48;73.23
44697;BME280;57264;47.480;19.354;2023-05-19T22:11:39;99675.66;;;16.53;73.31
44697;BME280;57264;47.480;19.354;2023-05-19T22:14:04;99671.97;;;16.54;73.54
44697;BME280;57264;47.480;19.354;2023-05-19T22:16:30;99675.91;;;16.52;73.48
44697;BME280;57264;47.480;19.354;2023-05-19T22:18:56;99675.56;;;16.48;73.63
44697;BME280;57264;47.480;19.354;2023-05-19T22:21:21;99675.66;;;16.42;74.36
44697;BME280;57264;47.480;19.354;2023-05-19T22:23:47;99675.22;;;16.33;75.01
44697;BME280;57264;47.480;19.354;2023-05-19T22:26:12;99677.19;;;16.26;75.34
44697;BME280;57264;47.480;19.354;2023-05-19T22:28:38;99668.34;;;16.20;76.09
44697;BME280;57264;47.480;19.354;2023-05-19T22:31:03;99672.56;;;16.21;75.53
44697;BME280;57264;47.480;19.354;2023-05-19T22:33:30;99672.00;;;16.19;76.17
44697;BME280;57264;47.480;19.354;2023-05-19T22:35:56;99673.38;;;16.22;76.41
44697;BME280;57264;47.480;19.354;2023-05-19T22:38:21;99665.91;;;16.19;76.57
44697;BME280;57264;47.480;19.354;2023-05-19T22:40:49;99655.19;;;16.14;77.12
44697;BME280;57264;47.480;19.354;2023-05-19T22:43:15;99657.03;;;16.13;77.45
44697;BME280;57264;47.480;19.354;2023-05-19T22:45:42;99656.81;;;16.15;77.39
44697;BME280;57264;47.480;19.354;2023-05-19T22:48:08;99660.41;;;16.09;77.97
44697;BME280;57264;47.480;19.354;2023-05-19T22:50:34;99652.56;;;16.02;78.01
44697;BME280;57264;47.480;19.354;2023-05-19T22:53:00;99658.66;;;15.91;78.51
44697;BME280;57264;47.480;19.354;2023-05-19T22:55:25;99651.06;;;15.83;79.21
44697;BME280;57264;47.480;19.354;2023-05-19T22:57:51;99645.97;;;15.70;79.36
44697;BME280;57264;47.480;19.354;2023-05-19T23:00:17;99646.97;;;15.57;79.77
44697;BME280;57264;47.480;19.354;2023-05-19T23:02:46;99646.28;;;15.50;80.38
44697;BME280;57264;47.480;19.354;2023-05-19T23:05:11;99639.66;;;15.41;80.87
44697;BME280;57264;47.480;19.354;2023-05-19T23:07:36;99639.47;;;15.42;81.31
44697;BME280;57264;47.480;19.354;2023-05-19T23:10:02;99639.47;;;15.42;81.54
44697;BME280;57264;47.480;19.354;2023-05-19T23:12:30;99634.06;;;15.49;81.84
44697;BME280;57264;47.480;19.354;2023-05-19T23:14:55;99637.31;;;15.51;82.34
44697;BME280;57264;47.480;19.354;2023-05-19T23:17:21;99633.88;;;15.51;82.42
44697;BME280;57264;47.480;19.354;2023-05-19T23:19:46;99635.16;;;15.60;82.00
44697;BME280;57264;47.480;19.354;2023-05-19T23:22:12;99630.88;;;15.59;82.36
44697;BME280;57264;47.480;19.354;2023-05-19T23:24:38;99632.38;;;15.55;82.09
44697;BME280;57264;47.480;19.354;2023-05-19T23:27:03;99629.16;;;15.53;82.22
44697;BME280;57264;47.480;19.354;2023-05-19T23:29:29;99622.44;;;15.38;82.90
44697;BME280;57264;47.480;19.354;2023-05-19T23:31:55;99626.22;;;15.31;83.25
44697;BME280;57264;47.480;19.354;2023-05-19T23:34:21;99628.38;;;15.22;84.02
44697;BME280;57264;47.480;19.354;2023-05-19T23:36:47;99635.84;;;15.25;84.07
44697;BME280;57264;47.480;19.354;2023-05-19T23:39:12;99623.28;;;15.21;84.53
44697;BME280;57264;47.480;19.354;2023-05-19T23:41:38;99618.91;;;15.15;84.50
44697;BME280;57264;47.480;19.354;2023-05-19T23:44:03;99620.28;;;15.17;84.69
44697;BME280;57264;47.480;19.354;2023-05-19T23:46:29;99621.66;;;15.08;84.91
44697;BME280;57264;47.480;19.354;2023-05-19T23:48:55;99624.16;;;15.03;85.47
44697;BME280;57264;47.480;19.354;2023-05-19T23:51:20;99626.78;;;14.91;85.74
44697;BME280;57264;47.480;19.354;2023-05-19T23:53:45;99621.25;;;14.93;86.03
44697;BME280;57264;47.480;19.354;2023-05-19T23:56:11;99618.38;;;14.94;85.71
44697;BME280;57264;47.480;19.354;2023-05-19T23:58:37;99611.84;;;14.97;86.22
